Time;durP1;ratioP1;P1;durP2;ratioP2;P2;SDS_P1;SDS_P2;PMS_P1;PMS_P2;Temp;Humidity;BMP_temperature;BMP_pressure;BME280_temperature;BME280_humidity;BME280_pressure;Samples;Min_cycle;Max_cycle;Signal;HPM_P1;HPM_P2
2022/10/10 00:00:43;;;;;;;;;;;27.10;99.90;;;;;;4194194;28;20015;-69
2022/10/10 00:02:50;;;;;;;;;;;27.00;99.90;;;;;;4175300;28;20663;-69
2022/10/10 00:04:56;;;;;;;;;;;27.00;99.90;;;;;;4177108;28;20366;-70
2022/10/10 00:07:01;;;;;;;;;;;27.00;99.90;;;;;;4176317;28;19936;-69
2022/10/10 00:09:07;;;;;;;;;;;27.10;99.90;;;;;;4177336;28;19937;-69
2022/10/10 00:11:13;;;;;;;;;;;27.00;99.90;;;;;;4194824;28;19955;-69
2022/10/10 00:13:17;;;;;;;;;;;27.20;99.90;;;;;;4194273;28;20380;-69
2022/10/10 00:15:23;;;;;;;;;;;27.20;99.90;;;;;;4142598;28;20344;-66
2022/10/10 00:17:29;;;;;;;;;;;27.20;99.90;;;;;;4174093;28;19933;-68
2022/10/10 00:19:33;;;;;;;;;;;27.20;99.90;;;;;;4194045;28;20023;-68
2022/10/10 00:21:41;;;;;;;;;;;27.30;99.90;;;;;;4192274;28;20440;-69
2022/10/10 00:23:47;;;;;;;;;;;27.30;99.90;;;;;;4194833;28;20007;-67
2022/10/10 00:25:51;;;;;;;;;;;27.30;99.90;;;;;;4192705;28;20460;-68
2022/10/10 00:27:55;;;;;;;;;;;27.30;99.90;;;;;;4194602;28;19936;-68
2022/10/10 00:30:01;;;;;;;;;;;27.40;99.90;;;;;;4192051;28;20435;-67
2022/10/10 00:32:06;;;;;;;;;;;27.40;99.90;;;;;;4187639;28;19981;-69
2022/10/10 00:34:11;;;;;;;;;;;27.50;99.90;;;;;;4188972;28;20563;-68
2022/10/10 00:36:20;;;;;;;;;;;27.60;99.90;;;;;;4193019;28;20034;-68
2022/10/10 00:38:24;;;;;;;;;;;27.70;99.90;;;;;;4196992;28;19968;-69
2022/10/10 00:40:30;;;;;;;;;;;27.70;99.90;;;;;;4194442;28;19935;-68
2022/10/10 00:42:39;;;;;;;;;;;27.70;99.90;;;;;;4159533;28;19968;-69
2022/10/10 00:44:44;;;;;;;;;;;27.80;99.90;;;;;;4193185;28;19928;-68
2022/10/10 00:46:50;;;;;;;;;;;27.80;99.90;;;;;;4194020;28;20314;-68
2022/10/10 00:48:57;;;;;;;;;;;27.70;99.90;;;;;;4176197;28;20353;-68
2022/10/10 00:51:01;;;;;;;;;;;27.80;99.90;;;;;;4191499;28;19929;-68
2022/10/10 00:53:07;;;;;;;;;;;27.80;99.90;;;;;;4193101;28;20528;-68
2022/10/10 00:55:13;;;;;;;;;;;27.70;99.90;;;;;;4192972;28;19974;-68
2022/10/10 00:57:17;;;;;;;;;;;27.60;99.90;;;;;;4193100;28;20370;-68
2022/10/10 00:59:24;;;;;;;;;;;27.70;99.90;;;;;;4185693;28;19928;-68
2022/10/10 01:01:27;;;;;;;;;;;27.80;99.90;;;;;;4178494;28;19933;-67
2022/10/10 01:03:32;;;;;;;;;;;27.70;99.90;;;;;;4193849;28;19964;-68
2022/10/10 01:05:38;;;;;;;;;;;27.80;99.90;;;;;;4194401;28;19928;-68
2022/10/10 01:07:43;;;;;;;;;;;27.90;99.90;;;;;;4192499;28;19928;-67
2022/10/10 01:09:48;;;;;;;;;;;27.90;99.90;;;;;;4191283;28;20698;-68
2022/10/10 01:12:03;;;;;;;;;;;27.90;99.90;;;;;;4191863;28;19982;-67
2022/10/10 01:14:11;;;;;;;;;;;28.00;99.90;;;;;;4189136;28;20485;-68
2022/10/10 01:16:18;;;;;;;;;;;28.00;99.90;;;;;;4181072;28;20333;-68
2022/10/10 01:18:35;;;;;;;;;;;27.90;99.90;;;;;;4190581;28;19928;-68
2022/10/10 01:20:41;;;;;;;;;;;28.10;99.90;;;;;;4190564;28;19974;-68
2022/10/10 01:22:48;;;;;;;;;;;28.10;99.90;;;;;;4194310;28;19974;-68
2022/10/10 01:24:55;;;;;;;;;;;28.10;99.90;;;;;;4192535;28;20310;-68
2022/10/10 01:27:04;;;;;;;;;;;28.10;99.90;;;;;;4192773;28;20413;-68
2022/10/10 01:29:08;;;;;;;;;;;28.10;99.90;;;;;;4174622;28;20441;-68
2022/10/10 01:31:15;;;;;;;;;;;28.30;99.90;;;;;;4193291;28;19935;-67
2022/10/10 01:33:21;;;;;;;;;;;28.40;99.90;;;;;;4143595;28;19933;-68
2022/10/10 01:35:38;;;;;;;;;;;28.40;99.90;;;;;;4142287;28;19929;-68
2022/10/10 01:37:58;;;;;;;;;;;28.50;99.90;;;;;;4123192;28;20393;-69
2022/10/10 01:40:11;;;;;;;;;;;28.60;99.90;;;;;;4124330;28;20348;-67
2022/10/10 01:42:19;;;;;;;;;;;28.60;99.90;;;;;;4118258;28;19968;-68
2022/10/10 01:44:24;;;;;;;;;;;28.70;99.90;;;;;;4121074;28;19972;-68
2022/10/10 01:46:29;;;;;;;;;;;28.70;99.90;;;;;;4135522;28;19940;-67
2022/10/10 01:48:33;;;;;;;;;;;28.70;99.90;;;;;;4125195;28;20419;-67
2022/10/10 01:50:50;;;;;;;;;;;28.70;99.90;;;;;;4141983;28;20520;-68
2022/10/10 01:53:09;;;;;;;;;;;28.70;99.90;;;;;;4140842;28;19929;-68
2022/10/10 01:55:13;;;;;;;;;;;28.80;99.90;;;;;;4138822;28;19929;-68
2022/10/10 01:57:25;;;;;;;;;;;28.90;99.90;;;;;;4141026;28;20001;-67
2022/10/10 01:59:42;;;;;;;;;;;28.90;99.90;;;;;;4140073;28;20768;-68
2022/10/10 02:01:47;;;;;;;;;;;28.80;99.90;;;;;;4135680;28;19929;-68
2022/10/10 02:03:55;;;;;;;;;;;28.80;99.90;;;;;;4146321;28;19961;-68
2022/10/10 02:06:07;;;;;;;;;;;28.70;99.90;;;;;;4174780;28;19936;-68
2022/10/10 02:08:20;;;;;;;;;;;28.70;99.90;;;;;;4188766;28;19929;-67
2022/10/10 02:10:28;;;;;;;;;;;28.80;99.90;;;;;;4188470;28;19928;-67
2022/10/10 02:12:33;;;;;;;;;;;28.80;99.90;;;;;;4191164;28;20028;-68
2022/10/10 02:14:39;;;;;;;;;;;28.90;99.90;;;;;;4191958;28;19936;-68
2022/10/10 02:16:46;;;;;;;;;;;28.90;99.90;;;;;;4174909;28;19937;-68
2022/10/10 02:18:52;;;;;;;;;;;29.00;99.90;;;;;;4191558;28;19980;-67
2022/10/10 02:20:56;;;;;;;;;;;29.10;99.90;;;;;;4191524;28;19928;-68
2022/10/10 02:23:02;;;;;;;;;;;29.20;99.90;;;;;;4190480;28;19932;-67
2022/10/10 02:25:08;;;;;;;;;;;29.30;99.90;;;;;;4172219;28;20011;-68
2022/10/10 02:27:14;;;;;;;;;;;29.30;99.90;;;;;;4175485;28;19991;-67
2022/10/10 02:29:28;;;;;;;;;;;29.40;99.90;;;;;;4174202;28;20413;-67
2022/10/10 02:31:44;;;;;;;;;;;29.60;99.90;;;;;;4189447;28;20019;-68
2022/10/10 02:33:55;;;;;;;;;;;29.60;99.90;;;;;;4189475;28;20001;-68
2022/10/10 02:36:01;;;;;;;;;;;29.60;99.80;;;;;;4192668;28;19963;-67
2022/10/10 02:38:07;;;;;;;;;;;29.70;99.40;;;;;;4191418;28;20349;-68
2022/10/10 02:40:13;;;;;;;;;;;29.70;98.80;;;;;;4189717;28;20054;-67
2022/10/10 02:42:17;;;;;;;;;;;29.70;98.70;;;;;;4186823;28;19943;-67
2022/10/10 02:44:21;;;;;;;;;;;29.60;98.20;;;;;;4190150;28;19986;-67
2022/10/10 02:46:25;;;;;;;;;;;29.50;98.10;;;;;;4191835;28;20375;-67
2022/10/10 02:48:30;;;;;;;;;;;29.50;98.30;;;;;;4194623;28;19993;-67
2022/10/10 02:50:33;;;;;;;;;;;29.50;98.00;;;;;;4194935;28;19935;-67
2022/10/10 02:52:38;;;;;;;;;;;29.40;97.20;;;;;;4191588;28;19936;-68
2022/10/10 02:54:42;;;;;;;;;;;29.20;96.70;;;;;;4194640;28;19928;-67
2022/10/10 02:56:46;;;;;;;;;;;29.20;96.80;;;;;;4191219;28;19933;-67
2022/10/10 02:58:49;;;;;;;;;;;29.30;96.60;;;;;;4193386;28;19951;-67
2022/10/10 03:00:53;;;;;;;;;;;29.40;97.10;;;;;;4194153;28;20394;-67
2022/10/10 03:02:58;;;;;;;;;;;29.40;96.80;;;;;;4195057;28;19924;-67
2022/10/10 03:05:02;;;;;;;;;;;29.50;97.00;;;;;;4176476;28;19939;-69
2022/10/10 03:07:08;;;;;;;;;;;29.50;96.80;;;;;;4191670;28;20345;-67
2022/10/10 03:09:13;;;;;;;;;;;29.70;97.30;;;;;;4193340;28;20401;-67
2022/10/10 03:11:18;;;;;;;;;;;29.60;96.70;;;;;;4190465;28;19936;-68
2022/10/10 03:13:24;;;;;;;;;;;29.60;96.60;;;;;;4192234;28;19963;-67
2022/10/10 03:15:31;;;;;;;;;;;29.50;96.10;;;;;;4191235;28;19933;-67
2022/10/10 03:17:34;;;;;;;;;;;29.40;96.40;;;;;;4194429;28;20417;-67
2022/10/10 03:19:40;;;;;;;;;;;29.60;96.80;;;;;;4194222;28;19924;-67
2022/10/10 03:21:47;;;;;;;;;;;29.80;96.60;;;;;;4193209;28;19925;-67
2022/10/10 03:23:51;;;;;;;;;;;29.90;96.50;;;;;;4192057;28;20348;-67
2022/10/10 03:25:57;;;;;;;;;;;29.90;96.30;;;;;;4175653;28;20016;-67
2022/10/10 03:28:03;;;;;;;;;;;29.90;96.50;;;;;;4193884;28;20235;-67
2022/10/10 03:30:07;;;;;;;;;;;30.00;96.20;;;;;;4191904;28;20040;-68
2022/10/10 03:32:13;;;;;;;;;;;30.00;95.70;;;;;;4194408;28;19935;-67
2022/10/10 03:34:19;;;;;;;;;;;30.00;95.60;;;;;;4176150;28;19929;-68
2022/10/10 03:36:23;;;;;;;;;;;30.00;95.60;;;;;;4176516;28;20428;-68
2022/10/10 03:38:29;;;;;;;;;;;30.00;95.80;;;;;;4192194;28;19934;-67
2022/10/10 03:40:35;;;;;;;;;;;30.10;96.30;;;;;;4193730;28;19935;-67
2022/10/10 03:42:39;;;;;;;;;;;30.10;96.30;;;;;;4194319;28;20364;-68
2022/10/10 03:44:45;;;;;;;;;;;30.00;95.70;;;;;;4195436;28;19928;-67
2022/10/10 03:46:51;;;;;;;;;;;30.00;95.60;;;;;;4189531;28;19969;-68
2022/10/10 03:48:55;;;;;;;;;;;30.00;95.80;;;;;;4189202;28;19929;-67
2022/10/10 03:51:02;;;;;;;;;;;30.00;95.60;;;;;;4194301;28;19928;-68
2022/10/10 03:53:06;;;;;;;;;;;30.00;95.60;;;;;;4194290;28;19928;-67
2022/10/10 03:55:13;;;;;;;;;;;30.10;95.70;;;;;;4191158;28;19931;-67
2022/10/10 03:57:16;;;;;;;;;;;30.20;95.50;;;;;;4194072;28;19929;-68
2022/10/10 03:59:22;;;;;;;;;;;30.20;95.10;;;;;;4193680;28;20560;-67
2022/10/10 04:01:26;;;;;;;;;;;30.30;95.40;;;;;;4193212;28;20073;-68
2022/10/10 04:03:33;;;;;;;;;;;30.20;95.00;;;;;;4192593;28;19925;-67
2022/10/10 04:05:37;;;;;;;;;;;30.20;94.90;;;;;;4176488;28;19936;-68
2022/10/10 04:07:41;;;;;;;;;;;30.30;94.50;;;;;;4192052;28;20034;-68
2022/10/10 04:09:46;;;;;;;;;;;30.40;94.50;;;;;;4197034;28;19985;-67
2022/10/10 04:11:53;;;;;;;;;;;30.50;94.80;;;;;;4197317;28;19993;-68
2022/10/10 04:13:56;;;;;;;;;;;30.60;94.20;;;;;;4196934;28;20611;-68
2022/10/10 04:16:02;;;;;;;;;;;30.70;94.20;;;;;;4185696;28;20019;-68
2022/10/10 04:18:09;;;;;;;;;;;30.70;94.30;;;;;;4195420;28;19993;-68
2022/10/10 04:20:14;;;;;;;;;;;30.70;94.40;;;;;;4179302;28;20806;-67
2022/10/10 04:22:19;;;;;;;;;;;30.80;94.30;;;;;;4181441;28;20428;-67
2022/10/10 04:24:24;;;;;;;;;;;30.60;94.10;;;;;;4197106;28;20030;-68
2022/10/10 04:26:28;;;;;;;;;;;30.70;94.50;;;;;;4196692;28;19928;-68
2022/10/10 04:28:32;;;;;;;;;;;30.60;94.40;;;;;;4196556;28;19924;-68
2022/10/10 04:30:38;;;;;;;;;;;30.60;94.10;;;;;;4196371;28;19962;-68
2022/10/10 04:32:43;;;;;;;;;;;30.50;94.00;;;;;;4196901;28;20497;-68
2022/10/10 04:34:49;;;;;;;;;;;30.50;93.80;;;;;;4176865;28;19924;-68
2022/10/10 04:36:53;;;;;;;;;;;30.60;94.00;;;;;;4196550;28;19924;-69
2022/10/10 04:38:58;;;;;;;;;;;30.50;93.80;;;;;;4197462;28;19967;-68
2022/10/10 04:41:04;;;;;;;;;;;30.50;94.30;;;;;;4197083;28;19928;-68
2022/10/10 04:43:10;;;;;;;;;;;30.50;94.20;;;;;;4196877;28;20023;-68
2022/10/10 04:45:14;;;;;;;;;;;30.40;94.10;;;;;;4195300;28;20031;-68
2022/10/10 04:47:18;;;;;;;;;;;30.40;94.00;;;;;;4197294;28;19925;-68
2022/10/10 04:49:22;;;;;;;;;;;30.40;93.70;;;;;;4197318;28;20646;-68
2022/10/10 04:51:26;;;;;;;;;;;30.40;93.80;;;;;;4195209;28;19924;-68
2022/10/10 04:53:32;;;;;;;;;;;30.30;93.80;;;;;;4197197;28;20050;-68
2022/10/10 04:55:40;;;;;;;;;;;30.30;93.30;;;;;;4196381;28;19928;-68
2022/10/10 04:57:44;;;;;;;;;;;30.30;93.80;;;;;;4176082;28;19991;-69
2022/10/10 04:59:51;;;;;;;;;;;30.40;94.00;;;;;;4187046;28;21900;-68
2022/10/10 05:01:55;;;;;;;;;;;30.50;93.90;;;;;;4191683;28;20023;-68
2022/10/10 05:04:03;;;;;;;;;;;30.50;93.70;;;;;;4193273;28;19928;-68
2022/10/10 05:06:08;;;;;;;;;;;30.50;93.80;;;;;;4190427;28;19955;-68
2022/10/10 05:08:14;;;;;;;;;;;30.50;93.70;;;;;;4176411;28;20100;-68
2022/10/10 05:10:18;;;;;;;;;;;30.50;93.80;;;;;;4191726;28;19928;-68
2022/10/10 05:12:22;;;;;;;;;;;30.50;93.40;;;;;;4194098;28;19935;-67
2022/10/10 05:14:28;;;;;;;;;;;30.60;93.70;;;;;;4194050;28;19932;-67
2022/10/10 05:16:32;;;;;;;;;;;30.60;94.00;;;;;;4192396;28;20469;-69
2022/10/10 05:18:38;;;;;;;;;;;30.70;94.00;;;;;;4193706;28;20022;-67
2022/10/10 05:20:42;;;;;;;;;;;30.70;93.80;;;;;;4191925;28;19928;-69
2022/10/10 05:22:46;;;;;;;;;;;30.70;93.90;;;;;;4176658;28;19929;-69
2022/10/10 05:24:53;;;;;;;;;;;30.70;93.90;;;;;;4142386;28;19934;-69
2022/10/10 05:26:58;;;;;;;;;;;30.70;94.00;;;;;;4206681;28;19935;-68
2022/10/10 05:29:05;;;;;;;;;;;30.90;94.10;;;;;;4202832;28;19928;-68
2022/10/10 05:31:09;;;;;;;;;;;30.80;94.40;;;;;;4193477;28;20437;-68
2022/10/10 05:33:16;;;;;;;;;;;30.70;94.20;;;;;;4194567;28;19977;-68
2022/10/10 05:35:20;;;;;;;;;;;30.80;94.00;;;;;;4194137;28;19974;-68
2022/10/10 05:37:24;;;;;;;;;;;30.80;94.20;;;;;;4192740;28;20489;-68
2022/10/10 05:39:28;;;;;;;;;;;30.90;94.10;;;;;;4193718;28;19928;-68
2022/10/10 05:41:32;;;;;;;;;;;30.90;93.50;;;;;;4193436;28;19982;-68
2022/10/10 05:43:38;;;;;;;;;;;30.90;93.50;;;;;;4192203;28;19975;-68
2022/10/10 05:45:42;;;;;;;;;;;30.80;93.80;;;;;;4174843;28;19978;-68
2022/10/10 05:47:46;;;;;;;;;;;30.70;93.60;;;;;;4193740;28;19950;-68
2022/10/10 05:49:52;;;;;;;;;;;30.80;93.20;;;;;;4196195;28;19928;-68
2022/10/10 05:51:58;;;;;;;;;;;30.80;93.40;;;;;;4190801;28;19932;-68
2022/10/10 05:54:04;;;;;;;;;;;30.90;93.70;;;;;;4193685;28;19935;-68
2022/10/10 05:56:10;;;;;;;;;;;31.00;93.70;;;;;;4192853;28;20345;-68
2022/10/10 05:58:14;;;;;;;;;;;31.10;93.70;;;;;;4193467;28;19971;-68
2022/10/10 06:00:19;;;;;;;;;;;31.00;92.90;;;;;;4192223;28;19929;-68
2022/10/10 06:02:23;;;;;;;;;;;30.80;92.90;;;;;;4175224;28;19935;-68
2022/10/10 06:04:27;;;;;;;;;;;30.80;93.10;;;;;;4192927;28;19924;-68
2022/10/10 06:06:31;;;;;;;;;;;30.70;92.60;;;;;;4191822;28;20013;-68
2022/10/10 06:08:35;;;;;;;;;;;30.80;92.50;;;;;;4192772;28;19935;-69
2022/10/10 06:10:41;;;;;;;;;;;30.80;92.30;;;;;;4190641;28;20024;-68
2022/10/10 06:12:45;;;;;;;;;;;31.00;92.50;;;;;;4193042;28;19983;-68
2022/10/10 06:14:51;;;;;;;;;;;31.00;92.50;;;;;;4192916;28;19960;-68
2022/10/10 06:16:57;;;;;;;;;;;31.00;92.20;;;;;;4173898;28;19929;-68
2022/10/10 06:19:01;;;;;;;;;;;31.10;92.50;;;;;;4190700;28;19982;-68
2022/10/10 06:21:07;;;;;;;;;;;31.00;92.50;;;;;;4192199;28;19955;-68
2022/10/10 06:23:11;;;;;;;;;;;30.90;91.80;;;;;;4177237;28;19963;-68
2022/10/10 06:25:15;;;;;;;;;;;30.90;91.80;;;;;;4167216;28;19929;-68
2022/10/10 06:27:41;;;;;;;;;;;30.80;91.90;;;;;;4158338;28;20607;-68
2022/10/10 06:29:47;;;;;;;;;;;31.00;92.10;;;;;;4157702;28;20028;-68
2022/10/10 06:31:53;;;;;;;;;;;31.00;91.60;;;;;;4139546;28;20300;-69
2022/10/10 06:34:01;;;;;;;;;;;30.80;91.90;;;;;;4140053;28;20626;-68
2022/10/10 06:36:06;;;;;;;;;;;30.80;91.90;;;;;;4158352;28;20016;-69
2022/10/10 06:38:11;;;;;;;;;;;30.80;92.00;;;;;;4142799;28;19961;-69
2022/10/10 06:40:16;;;;;;;;;;;30.80;92.10;;;;;;4141245;28;20312;-70
2022/10/10 06:42:21;;;;;;;;;;;30.70;91.90;;;;;;4143310;28;19933;-69
2022/10/10 06:44:31;;;;;;;;;;;30.70;91.70;;;;;;4143393;28;20015;-69
2022/10/10 06:46:37;;;;;;;;;;;30.80;91.90;;;;;;4139518;28;20302;-69
2022/10/10 06:48:42;;;;;;;;;;;30.70;92.10;;;;;;4159783;28;19925;-69
2022/10/10 06:50:59;;;;;;;;;;;30.70;92.00;;;;;;4159409;28;19925;-70
2022/10/10 06:53:04;;;;;;;;;;;30.70;91.80;;;;;;4142595;28;20492;-70
2022/10/10 06:55:10;;;;;;;;;;;30.80;91.90;;;;;;4121204;28;19936;-70
2022/10/10 06:57:14;;;;;;;;;;;30.90;92.20;;;;;;4157227;28;19925;-70
2022/10/10 06:59:18;;;;;;;;;;;30.90;92.20;;;;;;4159400;28;20474;-69
2022/10/10 07:01:24;;;;;;;;;;;30.80;92.30;;;;;;4159098;28;19939;-69
2022/10/10 07:03:28;;;;;;;;;;;30.60;91.80;;;;;;4159425;28;20345;-69
2022/10/10 07:05:35;;;;;;;;;;;30.70;92.00;;;;;;4156944;28;19928;-68
2022/10/10 07:07:40;;;;;;;;;;;30.50;91.60;;;;;;4159804;28;20020;-68
2022/10/10 07:09:45;;;;;;;;;;;30.50;92.10;;;;;;4159869;28;20716;-68
2022/10/10 07:11:49;;;;;;;;;;;30.40;92.40;;;;;;4159100;28;20371;-68
2022/10/10 07:13:53;;;;;;;;;;;30.60;92.40;;;;;;4188897;28;19975;-68
2022/10/10 07:15:57;;;;;;;;;;;30.60;92.10;;;;;;4177598;28;19925;-68
2022/10/10 07:18:03;;;;;;;;;;;30.60;92.10;;;;;;4161055;28;19933;-69
2022/10/10 07:20:09;;;;;;;;;;;30.60;92.20;;;;;;4179283;28;19929;-69
2022/10/10 07:22:13;;;;;;;;;;;30.70;92.30;;;;;;4144588;28;19952;-68
2022/10/10 07:24:19;;;;;;;;;;;30.80;92.20;;;;;;4157994;28;19933;-68
2022/10/10 07:26:26;;;;;;;;;;;30.90;92.00;;;;;;4175159;28;20015;-69
2022/10/10 07:28:31;;;;;;;;;;;30.90;91.70;;;;;;4194932;28;19960;-68
2022/10/10 07:30:42;;;;;;;;;;;30.70;92.10;;;;;;4193930;28;20035;-69
2022/10/10 07:32:48;;;;;;;;;;;30.80;92.40;;;;;;4193918;28;19936;-69
2022/10/10 07:34:52;;;;;;;;;;;30.60;92.30;;;;;;4194898;28;19933;-69
2022/10/10 07:36:58;;;;;;;;;;;30.50;92.20;;;;;;4193629;28;19925;-69
2022/10/10 07:39:04;;;;;;;;;;;30.50;92.20;;;;;;4175019;28;19934;-68
2022/10/10 07:41:10;;;;;;;;;;;30.30;92.10;;;;;;4191989;28;19956;-68
2022/10/10 07:43:17;;;;;;;;;;;30.20;92.50;;;;;;4193139;28;19929;-69
2022/10/10 07:45:23;;;;;;;;;;;30.30;92.30;;;;;;4194602;28;19928;-70
2022/10/10 07:47:26;;;;;;;;;;;30.40;92.00;;;;;;4197394;28;19936;-70
2022/10/10 07:49:33;;;;;;;;;;;30.20;91.90;;;;;;4197142;28;19933;-70
2022/10/10 07:51:39;;;;;;;;;;;30.30;92.20;;;;;;4196079;28;20027;-68
2022/10/10 07:53:43;;;;;;;;;;;30.30;92.20;;;;;;4193690;28;19932;-70
2022/10/10 07:55:47;;;;;;;;;;;30.30;92.00;;;;;;4196673;28;19982;-69
2022/10/10 07:57:53;;;;;;;;;;;30.20;91.90;;;;;;4196310;28;20012;-69
2022/10/10 07:59:57;;;;;;;;;;;30.20;92.10;;;;;;4197602;28;19928;-68
2022/10/10 08:02:02;;;;;;;;;;;30.30;92.10;;;;;;4196755;28;19928;-69
2022/10/10 08:04:08;;;;;;;;;;;30.40;92.00;;;;;;4194694;28;19932;-70
2022/10/10 08:06:13;;;;;;;;;;;30.60;92.20;;;;;;4179337;28;19929;-70
2022/10/10 08:08:19;;;;;;;;;;;30.60;92.30;;;;;;4192952;28;19925;-70
2022/10/10 08:10:24;;;;;;;;;;;30.30;92.20;;;;;;4196848;28;19932;-69
2022/10/10 08:12:30;;;;;;;;;;;30.30;92.70;;;;;;4192312;28;19959;-69
2022/10/10 08:14:36;;;;;;;;;;;30.30;92.50;;;;;;4198246;28;19932;-69
2022/10/10 08:16:42;;;;;;;;;;;30.40;92.30;;;;;;4193332;28;20015;-69
2022/10/10 08:18:46;;;;;;;;;;;30.40;92.40;;;;;;4178152;28;19936;-69
2022/10/10 08:21:00;;;;;;;;;;;30.10;92.30;;;;;;4196446;28;20375;-69
2022/10/10 08:23:06;;;;;;;;;;;30.10;92.60;;;;;;4179783;28;20010;-69
2022/10/10 08:25:10;;;;;;;;;;;30.10;92.80;;;;;;4177469;28;19952;-69
2022/10/10 08:27:18;;;;;;;;;;;29.90;92.50;;;;;;4197037;28;19928;-69
2022/10/10 08:29:24;;;;;;;;;;;30.00;92.50;;;;;;4197119;28;19960;-68
2022/10/10 08:31:30;;;;;;;;;;;29.80;92.50;;;;;;4176609;28;19951;-70
2022/10/10 08:33:37;;;;;;;;;;;29.90;92.50;;;;;;4197186;28;19928;-69
2022/10/10 08:35:40;;;;;;;;;;;29.90;92.70;;;;;;4193494;28;20681;-70
2022/10/10 08:37:45;;;;;;;;;;;30.10;92.80;;;;;;4195487;28;19934;-69
2022/10/10 08:39:51;;;;;;;;;;;30.10;92.70;;;;;;4196826;28;20264;-69
2022/10/10 08:41:57;;;;;;;;;;;30.10;92.70;;;;;;4197126;28;19931;-70
2022/10/10 08:44:01;;;;;;;;;;;30.00;92.70;;;;;;4195498;28;21041;-69
2022/10/10 08:46:12;;;;;;;;;;;30.00;92.70;;;;;;4191128;28;19932;-69
2022/10/10 08:48:18;;;;;;;;;;;30.00;92.70;;;;;;4193250;28;19932;-69
2022/10/10 08:50:25;;;;;;;;;;;30.00;92.90;;;;;;4196689;28;19934;-69
2022/10/10 08:52:35;;;;;;;;;;;30.00;92.70;;;;;;4196654;28;19932;-69
2022/10/10 08:54:39;;;;;;;;;;;30.00;92.80;;;;;;4195767;28;19990;-69
2022/10/10 08:56:42;;;;;;;;;;;29.90;92.50;;;;;;4194495;28;19928;-71
2022/10/10 08:58:49;;;;;;;;;;;29.90;92.90;;;;;;4196314;28;19932;-69
2022/10/10 09:01:05;;;;;;;;;;;29.90;92.70;;;;;;4195729;28;19976;-69
2022/10/10 09:03:29;;;;;;;;;;;29.90;92.90;;;;;;4196973;28;20057;-69
2022/10/10 09:05:41;;;;;;;;;;;29.80;92.60;;;;;;4196397;28;19932;-70
2022/10/10 09:07:48;;;;;;;;;;;29.90;92.70;;;;;;4195314;28;19924;-69
2022/10/10 09:10:05;;;;;;;;;;;29.80;92.60;;;;;;4196963;28;19956;-69
2022/10/10 09:12:17;;;;;;;;;;;29.80;92.70;;;;;;4210970;28;19927;-69
2022/10/10 09:14:34;;;;;;;;;;;29.80;92.60;;;;;;4201690;28;19952;-69
2022/10/10 09:16:51;;;;;;;;;;;29.70;92.90;;;;;;4194423;28;20728;-69
2022/10/10 09:19:07;;;;;;;;;;;29.80;92.80;;;;;;4195094;28;20607;-69
2022/10/10 09:21:15;;;;;;;;;;;29.50;93.00;;;;;;4178427;28;19925;-69
2022/10/10 09:23:19;;;;;;;;;;;29.40;93.30;;;;;;4195202;28;20002;-69
2022/10/10 09:25:23;;;;;;;;;;;29.50;93.40;;;;;;4196292;28;19959;-70
2022/10/10 09:27:35;;;;;;;;;;;29.50;93.40;;;;;;4209500;28;19971;-69
2022/10/10 09:29:40;;;;;;;;;;;29.50;93.40;;;;;;4212151;28;19928;-69
2022/10/10 09:31:53;;;;;;;;;;;29.50;93.20;;;;;;4205993;28;20387;-69
2022/10/10 09:33:59;;;;;;;;;;;29.50;93.40;;;;;;4193970;28;19928;-69
2022/10/10 09:36:04;;;;;;;;;;;29.60;93.30;;;;;;4190419;28;20078;-69
2022/10/10 09:38:17;;;;;;;;;;;29.50;93.50;;;;;;4175350;28;20024;-70
2022/10/10 09:40:23;;;;;;;;;;;29.50;93.70;;;;;;4193765;28;20015;-70
2022/10/10 09:42:31;;;;;;;;;;;29.50;93.50;;;;;;4195311;28;19931;-69
2022/10/10 09:44:38;;;;;;;;;;;29.40;93.60;;;;;;4178660;28;19929;-69
2022/10/10 09:46:44;;;;;;;;;;;29.40;93.60;;;;;;4192616;28;19925;-69
2022/10/10 09:48:48;;;;;;;;;;;29.40;93.40;;;;;;4195419;28;19924;-69
2022/10/10 09:50:54;;;;;;;;;;;29.40;93.60;;;;;;4195298;28;19925;-69
2022/10/10 09:52:59;;;;;;;;;;;29.50;93.60;;;;;;4193683;28;19932;-69
2022/10/10 09:55:14;;;;;;;;;;;29.50;93.40;;;;;;4191892;28;20445;-69
2022/10/10 09:57:18;;;;;;;;;;;29.40;93.20;;;;;;4194348;28;20012;-69
2022/10/10 09:59:34;;;;;;;;;;;29.40;93.30;;;;;;4194008;28;19974;-69
2022/10/10 10:01:38;;;;;;;;;;;29.50;93.30;;;;;;4191802;28;20011;-69
2022/10/10 10:04:03;;;;;;;;;;;29.50;93.20;;;;;;4195374;28;19960;-69
2022/10/10 10:06:29;;;;;;;;;;;29.40;92.80;;;;;;4178671;28;19959;-69
2022/10/10 10:08:34;;;;;;;;;;;29.30;92.90;;;;;;4196541;28;19935;-69
2022/10/10 10:10:40;;;;;;;;;;;29.30;93.10;;;;;;4177980;28;19929;-70
2022/10/10 10:12:44;;;;;;;;;;;29.20;92.90;;;;;;4195332;28;19960;-70
2022/10/10 10:14:50;;;;;;;;;;;29.10;92.70;;;;;;4195369;28;19924;-69
2022/10/10 10:17:04;;;;;;;;;;;29.10;92.80;;;;;;4193442;28;19932;-70
2022/10/10 10:19:27;;;;;;;;;;;29.10;92.90;;;;;;4193769;28;20255;-69
2022/10/10 10:21:32;;;;;;;;;;;29.10;92.50;;;;;;4191103;28;19955;-69
2022/10/10 10:23:50;;;;;;;;;;;29.10;92.40;;;;;;4176458;28;19924;-70
2022/10/10 10:25:58;;;;;;;;;;;29.00;92.50;;;;;;4176149;28;19929;-69
2022/10/10 10:28:12;;;;;;;;;;;29.00;92.50;;;;;;4177154;28;20415;-68
2022/10/10 10:30:24;;;;;;;;;;;29.00;92.40;;;;;;4175914;28;19952;-70
2022/10/10 10:32:32;;;;;;;;;;;28.90;92.30;;;;;;4173634;28;20014;-68
2022/10/10 10:34:49;;;;;;;;;;;28.80;92.30;;;;;;4176631;28;19928;-70
2022/10/10 10:37:02;;;;;;;;;;;28.80;92.10;;;;;;4157471;28;19960;-69
2022/10/10 10:39:19;;;;;;;;;;;28.80;92.10;;;;;;4159900;28;19953;-69
2022/10/10 10:41:29;;;;;;;;;;;28.80;92.20;;;;;;4175485;28;20068;-69
2022/10/10 10:43:47;;;;;;;;;;;28.80;92.20;;;;;;4157329;28;19929;-69
2022/10/10 10:46:03;;;;;;;;;;;28.80;92.10;;;;;;4171950;28;20288;-69
2022/10/10 10:48:06;;;;;;;;;;;28.80;92.00;;;;;;4174939;28;20370;-69
2022/10/10 10:50:15;;;;;;;;;;;28.90;92.00;;;;;;4175026;28;19925;-69
2022/10/10 10:52:25;;;;;;;;;;;28.90;92.30;;;;;;4176893;28;20407;-70
2022/10/10 10:54:42;;;;;;;;;;;28.90;92.10;;;;;;4176952;28;19925;-69
2022/10/10 10:57:00;;;;;;;;;;;28.90;92.20;;;;;;4198331;28;19952;-70
2022/10/10 10:59:12;;;;;;;;;;;28.90;92.40;;;;;;4195138;28;19928;-70
2022/10/10 11:01:41;;;;;;;;;;;28.90;92.50;;;;;;4194033;28;19928;-69
2022/10/10 11:04:03;;;;;;;;;;;28.80;92.80;;;;;;4193930;28;20027;-69
2022/10/10 11:06:29;;;;;;;;;;;28.90;92.90;;;;;;4192836;28;19974;-69
2022/10/10 11:08:37;;;;;;;;;;;28.80;93.00;;;;;;4195299;28;19928;-68
2022/10/10 11:10:53;;;;;;;;;;;28.80;93.20;;;;;;4195027;28;19925;-68
2022/10/10 11:13:12;;;;;;;;;;;28.80;93.40;;;;;;4194727;28;19928;-71
2022/10/10 11:15:24;;;;;;;;;;;28.80;93.50;;;;;;4194178;28;19929;-69
2022/10/10 11:17:50;;;;;;;;;;;28.70;93.50;;;;;;4176027;28;20032;-69
2022/10/10 11:19:56;;;;;;;;;;;28.80;93.60;;;;;;4159362;28;20478;-70
2022/10/10 11:22:00;;;;;;;;;;;28.70;93.60;;;;;;4175936;28;19928;-69
2022/10/10 11:24:09;;;;;;;;;;;28.70;93.50;;;;;;4176626;28;19925;-69
2022/10/10 11:26:26;;;;;;;;;;;28.70;93.50;;;;;;4175620;28;19982;-69
2022/10/10 11:28:30;;;;;;;;;;;28.70;93.50;;;;;;4176083;28;19929;-70
2022/10/10 11:30:39;;;;;;;;;;;28.70;93.60;;;;;;4175165;28;20457;-70
2022/10/10 11:32:47;;;;;;;;;;;28.60;93.60;;;;;;4159766;28;19933;-69
2022/10/10 11:35:02;;;;;;;;;;;28.60;93.60;;;;;;4175889;28;19936;-68
2022/10/10 11:37:16;;;;;;;;;;;28.50;93.60;;;;;;4160343;28;19929;-70
2022/10/10 11:39:22;;;;;;;;;;;28.60;93.50;;;;;;4176584;28;19968;-68
2022/10/10 11:41:34;;;;;;;;;;;28.50;93.60;;;;;;4175992;28;20474;-69
2022/10/10 11:43:47;;;;;;;;;;;28.50;93.90;;;;;;4160772;28;19944;-70
2022/10/10 11:45:53;;;;;;;;;;;28.50;93.50;;;;;;4175421;28;20438;-70
2022/10/10 11:48:10;;;;;;;;;;;28.50;93.50;;;;;;4160398;28;20008;-70
2022/10/10 11:50:17;;;;;;;;;;;28.40;93.30;;;;;;4194896;28;19964;-68
2022/10/10 11:52:22;;;;;;;;;;;28.40;93.30;;;;;;4194403;28;19928;-69
2022/10/10 11:54:44;;;;;;;;;;;28.50;93.40;;;;;;4193784;28;19974;-69
2022/10/10 11:56:51;;;;;;;;;;;28.40;93.30;;;;;;4194469;28;20015;-69
2022/10/10 11:58:57;;;;;;;;;;;28.40;93.40;;;;;;4194447;28;19932;-69
2022/10/10 12:01:13;;;;;;;;;;;28.30;93.10;;;;;;4192178;28;20357;-71
2022/10/10 12:03:19;;;;;;;;;;;28.30;93.20;;;;;;4194653;28;19928;-71
2022/10/10 12:05:25;;;;;;;;;;;28.30;93.10;;;;;;4176952;28;19935;-70
2022/10/10 12:07:31;;;;;;;;;;;28.30;92.90;;;;;;4184912;28;19932;-71
2022/10/10 12:09:39;;;;;;;;;;;28.20;93.10;;;;;;4177293;28;19928;-71
2022/10/10 12:11:45;;;;;;;;;;;28.20;93.20;;;;;;4177975;28;20402;-71
2022/10/10 12:13:51;;;;;;;;;;;28.20;93.10;;;;;;4193215;28;19934;-71
2022/10/10 12:16:01;;;;;;;;;;;28.20;93.10;;;;;;4142213;28;20000;-71
2022/10/10 12:18:08;;;;;;;;;;;28.10;93.20;;;;;;4160593;28;19975;-71
2022/10/10 12:20:14;;;;;;;;;;;28.10;93.40;;;;;;4176703;28;19979;-71